sensor_id;sensor_type;location;lat;lon;timestamp;temperature;humidity
69598;SHT31;70000;51.176;-115.568;2024-01-15T00:01:06;-23.01;77.70
69598;SHT31;70000;51.176;-115.568;2024-01-15T00:03:35;-23.05;77.65
69598;SHT31;70000;51.176;-115.568;2024-01-15T00:06:05;-23.11;77.56
69598;SHT31;70000;51.176;-115.568;2024-01-15T00:08:34;-23.13;77.61
69598;SHT31;70000;51.176;-115.568;2024-01-15T00:11:03;-23.13;77.62
69598;SHT31;70000;51.176;-115.568;2024-01-15T00:13:32;-23.18;77.64
69598;SHT31;70000;51.176;-115.568;2024-01-15T00:16:01;-23.23;77.60
69598;SHT31;70000;51.176;-115.568;2024-01-15T00:18:32;-23.25;77.61
69598;SHT31;70000;51.176;-115.568;2024-01-15T00:21:03;-23.30;77.54
69598;SHT31;70000;51.176;-115.568;2024-01-15T00:23:41;-23.36;77.45
69598;SHT31;70000;51.176;-115.568;2024-01-15T00:26:14;-23.35;77.50
69598;SHT31;70000;51.176;-115.568;2024-01-15T00:28:43;-23.38;77.45
69598;SHT31;70000;51.176;-115.568;2024-01-15T00:31:12;-23.40;77.48
69598;SHT31;70000;51.176;-115.568;2024-01-15T00:33:43;-23.42;77.51
69598;SHT31;70000;51.176;-115.568;2024-01-15T00:36:13;-23.41;77.59
69598;SHT31;70000;51.176;-115.568;2024-01-15T00:38:43;-23.43;77.53
69598;SHT31;70000;51.176;-115.568;2024-01-15T00:41:15;-23.46;77.60
69598;SHT31;70000;51.176;-115.568;2024-01-15T00:43:44;-23.52;77.40
69598;SHT31;70000;51.176;-115.568;2024-01-15T00:46:14;-23.60;77.28
69598;SHT31;70000;51.176;-115.568;2024-01-15T00:48:43;-23.62;77.29
69598;SHT31;70000;51.176;-115.568;2024-01-15T00:51:13;-23.65;77.30
69598;SHT31;70000;51.176;-115.568;2024-01-15T00:53:42;-23.69;77.27
69598;SHT31;70000;51.176;-115.568;2024-01-15T00:56:11;-23.75;77.26
69598;SHT31;70000;51.176;-115.568;2024-01-15T00:58:43;-23.81;77.16
69598;SHT31;70000;51.176;-115.568;2024-01-15T01:01:12;-23.87;77.08
69598;SHT31;70000;51.176;-115.568;2024-01-15T01:03:43;-23.94;77.08
69598;SHT31;70000;51.176;-115.568;2024-01-15T01:08:55;-23.96;77.27
69598;SHT31;70000;51.176;-115.568;2024-01-15T01:11:24;-23.97;77.30
69598;SHT31;70000;51.176;-115.568;2024-01-15T01:13:53;-24.00;77.26
69598;SHT31;70000;51.176;-115.568;2024-01-15T01:16:24;-24.05;77.27
69598;SHT31;70000;51.176;-115.568;2024-01-15T01:18:55;-24.14;77.11
69598;SHT31;70000;51.176;-115.568;2024-01-15T01:21:24;-24.23;77.02
69598;SHT31;70000;51.176;-115.568;2024-01-15T01:23:56;-24.27;77.00
69598;SHT31;70000;51.176;-115.568;2024-01-15T01:26:25;-24.34;76.96
69598;SHT31;70000;51.176;-115.568;2024-01-15T01:28:54;-24.42;76.89
69598;SHT31;70000;51.176;-115.568;2024-01-15T01:31:23;-24.46;76.94
69598;SHT31;70000;51.176;-115.568;2024-01-15T01:33:52;-24.46;76.99
69598;SHT31;70000;51.176;-115.568;2024-01-15T01:36:22;-24.48;76.99
69598;SHT31;70000;51.176;-115.568;2024-01-15T01:38:51;-24.52;76.98
69598;SHT31;70000;51.176;-115.568;2024-01-15T01:41:20;-24.56;76.90
69598;SHT31;70000;51.176;-115.568;2024-01-15T01:43:51;-24.60;76.93
69598;SHT31;70000;51.176;-115.568;2024-01-15T01:46:20;-24.65;76.90
69598;SHT31;70000;51.176;-115.568;2024-01-15T01:48:50;-24.68;76.85
69598;SHT31;70000;51.176;-115.568;2024-01-15T01:51:25;-24.72;76.82
69598;SHT31;70000;51.176;-115.568;2024-01-15T01:53:54;-24.79;76.78
69598;SHT31;70000;51.176;-115.568;2024-01-15T01:56:26;-24.88;76.68
69598;SHT31;70000;51.176;-115.568;2024-01-15T01:58:56;-24.94;76.62
69598;SHT31;70000;51.176;-115.568;2024-01-15T02:01:26;-24.99;76.60
69598;SHT31;70000;51.176;-115.568;2024-01-15T02:03:55;-24.99;76.66
69598;SHT31;70000;51.176;-115.568;2024-01-15T02:06:25;-24.99;76.72
69598;SHT31;70000;51.176;-115.568;2024-01-15T02:08:55;-25.03;76.70
69598;SHT31;70000;51.176;-115.568;2024-01-15T02:11:25;-25.08;76.66
69598;SHT31;70000;51.176;-115.568;2024-01-15T02:13:56;-25.13;76.57
69598;SHT31;70000;51.176;-115.568;2024-01-15T02:16:25;-25.13;76.63
69598;SHT31;70000;51.176;-115.568;2024-01-15T02:18:54;-25.14;76.66
69598;SHT31;70000;51.176;-115.568;2024-01-15T02:21:23;-25.12;76.78
69598;SHT31;70000;51.176;-115.568;2024-01-15T02:24:03;-25.13;76.77
69598;SHT31;70000;51.176;-115.568;2024-01-15T02:26:32;-25.14;76.72
69598;SHT31;70000;51.176;-115.568;2024-01-15T02:29:08;-25.13;76.71
69598;SHT31;70000;51.176;-115.568;2024-01-15T02:31:38;-25.14;76.70
69598;SHT31;70000;51.176;-115.568;2024-01-15T02:34:08;-25.15;76.70
69598;SHT31;70000;51.176;-115.568;2024-01-15T02:36:36;-25.16;76.70
69598;SHT31;70000;51.176;-115.568;2024-01-15T02:39:06;-25.18;76.68
69598;SHT31;70000;51.176;-115.568;2024-01-15T02:41:36;-25.19;76.69
69598;SHT31;70000;51.176;-115.568;2024-01-15T02:44:05;-25.22;76.69
69598;SHT31;70000;51.176;-115.568;2024-01-15T02:46:34;-25.24;76.65
69598;SHT31;70000;51.176;-115.568;2024-01-15T02:49:03;-25.25;76.69
69598;SHT31;70000;51.176;-115.568;2024-01-15T02:51:32;-25.25;76.72
69598;SHT31;70000;51.176;-115.568;2024-01-15T03:05:33;-25.37;76.70
69598;SHT31;70000;51.176;-115.568;2024-01-15T03:08:02;-25.38;76.70
69598;SHT31;70000;51.176;-115.568;2024-01-15T03:10:30;-25.41;76.67
69598;SHT31;70000;51.176;-115.568;2024-01-15T03:13:00;-25.43;76.67
69598;SHT31;70000;51.176;-115.568;2024-01-15T03:15:29;-25.42;76.79
69598;SHT31;70000;51.176;-115.568;2024-01-15T03:17:57;-25.42;76.80
69598;SHT31;70000;51.176;-115.568;2024-01-15T03:20:26;-25.44;76.82
69598;SHT31;70000;51.176;-115.568;2024-01-15T03:22:54;-25.44;76.89
69598;SHT31;70000;51.176;-115.568;2024-01-15T03:25:23;-25.45;76.96
69598;SHT31;70000;51.176;-115.568;2024-01-15T03:27:54;-25.50;76.86
69598;SHT31;70000;51.176;-115.568;2024-01-15T03:30:23;-25.58;76.77
69598;SHT31;70000;51.176;-115.568;2024-01-15T03:32:52;-25.69;76.60
69598;SHT31;70000;51.176;-115.568;2024-01-15T03:35:21;-25.78;76.42
69598;SHT31;70000;51.176;-115.568;2024-01-15T03:37:50;-25.83;76.40
69598;SHT31;70000;51.176;-115.568;2024-01-15T03:40:19;-25.88;76.40
69598;SHT31;70000;51.176;-115.568;2024-01-15T03:42:49;-25.93;76.40
69598;SHT31;70000;51.176;-115.568;2024-01-15T03:45:18;-25.97;76.40
69598;SHT31;70000;51.176;-115.568;2024-01-15T03:47:46;-26.01;76.39
69598;SHT31;70000;51.176;-115.568;2024-01-15T03:53:22;-26.07;76.40
69598;SHT31;70000;51.176;-115.568;2024-01-15T03:55:55;-26.13;76.30
69598;SHT31;70000;51.176;-115.568;2024-01-15T03:58:26;-26.21;76.17
69598;SHT31;70000;51.176;-115.568;2024-01-15T04:00:55;-26.21;76.19
69598;SHT31;70000;51.176;-115.568;2024-01-15T04:03:30;-26.24;76.20
69598;SHT31;70000;51.176;-115.568;2024-01-15T04:09:06;-26.28;76.20
69598;SHT31;70000;51.176;-115.568;2024-01-15T04:11:35;-26.30;76.20
69598;SHT31;70000;51.176;-115.568;2024-01-15T04:14:04;-26.32;76.22
69598;SHT31;70000;51.176;-115.568;2024-01-15T04:16:33;-26.32;76.30
69598;SHT31;70000;51.176;-115.568;2024-01-15T04:19:02;-26.36;76.26
69598;SHT31;70000;51.176;-115.568;2024-01-15T04:21:31;-26.39;76.20
69598;SHT31;70000;51.176;-115.568;2024-01-15T04:24:01;-26.42;76.21
69598;SHT31;70000;51.176;-115.568;2024-01-15T04:26:30;-26.45;76.18
69598;SHT31;70000;51.176;-115.568;2024-01-15T04:29:02;-26.45;76.20
69598;SHT31;70000;51.176;-115.568;2024-01-15T04:31:31;-26.43;76.20
69598;SHT31;70000;51.176;-115.568;2024-01-15T04:34:03;-26.43;76.28
69598;SHT31;70000;51.176;-115.568;2024-01-15T04:36:39;-26.47;76.23
69598;SHT31;70000;51.176;-115.568;2024-01-15T04:39:09;-26.49;76.20
69598;SHT31;70000;51.176;-115.568;2024-01-15T04:41:39;-26.59;76.03
69598;SHT31;70000;51.176;-115.568;2024-01-15T04:44:08;-26.71;75.82
69598;SHT31;70000;51.176;-115.568;2024-01-15T04:46:37;-26.79;75.80
69598;SHT31;70000;51.176;-115.568;2024-01-15T04:49:06;-26.84;75.85
69598;SHT31;70000;51.176;-115.568;2024-01-15T04:51:35;-26.83;75.98
69598;SHT31;70000;51.176;-115.568;2024-01-15T04:54:05;-26.82;76.07
69598;SHT31;70000;51.176;-115.568;2024-01-15T04:56:34;-26.85;76.09
69598;SHT31;70000;51.176;-115.568;2024-01-15T04:59:03;-26.88;76.07
69598;SHT31;70000;51.176;-115.568;2024-01-15T05:01:32;-26.88;76.10
69598;SHT31;70000;51.176;-115.568;2024-01-15T05:04:01;-26.92;76.10
69598;SHT31;70000;51.176;-115.568;2024-01-15T05:06:31;-27.01;76.00
69598;SHT31;70000;51.176;-115.568;2024-01-15T05:09:01;-27.07;75.94
69598;SHT31;70000;51.176;-115.568;2024-01-15T05:11:31;-27.13;75.91
69598;SHT31;70000;51.176;-115.568;2024-01-15T05:14:01;-27.25;75.83
69598;SHT31;70000;51.176;-115.568;2024-01-15T05:16:30;-27.27;75.84
69598;SHT31;70000;51.176;-115.568;2024-01-15T05:18:59;-27.29;75.89
69598;SHT31;70000;51.176;-115.568;2024-01-15T05:21:29;-27.30;75.90
69598;SHT31;70000;51.176;-115.568;2024-01-15T05:23:58;-27.36;75.83
69598;SHT31;70000;51.176;-115.568;2024-01-15T05:26:30;-27.42;75.78
69598;SHT31;70000;51.176;-115.568;2024-01-15T05:28:59;-27.49;75.69
69598;SHT31;70000;51.176;-115.568;2024-01-15T05:31:28;-27.53;75.69
69598;SHT31;70000;51.176;-115.568;2024-01-15T05:33:57;-27.52;75.79
69598;SHT31;70000;51.176;-115.568;2024-01-15T05:36:27;-27.56;75.72
69598;SHT31;70000;51.176;-115.568;2024-01-15T05:38:56;-27.61;75.69
69598;SHT31;70000;51.176;-115.568;2024-01-15T05:41:25;-27.65;75.68
69598;SHT31;70000;51.176;-115.568;2024-01-15T05:43:55;-27.78;75.46
69598;SHT31;70000;51.176;-115.568;2024-01-15T05:46:23;-27.85;75.41
69598;SHT31;70000;51.176;-115.568;2024-01-15T05:48:52;-27.84;75.53
69598;SHT31;70000;51.176;-115.568;2024-01-15T05:51:21;-27.87;75.47
69598;SHT31;70000;51.176;-115.568;2024-01-15T05:53:51;-27.86;75.59
69598;SHT31;70000;51.176;-115.568;2024-01-15T05:56:20;-27.85;75.64
69598;SHT31;70000;51.176;-115.568;2024-01-15T05:58:51;-27.85;75.62
69598;SHT31;70000;51.176;-115.568;2024-01-15T06:01:21;-27.82;75.72
69598;SHT31;70000;51.176;-115.568;2024-01-15T06:03:50;-27.83;75.72
69598;SHT31;70000;51.176;-115.568;2024-01-15T06:06:20;-27.83;75.67
69598;SHT31;70000;51.176;-115.568;2024-01-15T06:08:49;-27.81;75.70
69598;SHT31;70000;51.176;-115.568;2024-01-15T06:11:18;-27.77;75.78
69598;SHT31;70000;51.176;-115.568;2024-01-15T06:13:46;-27.75;75.79
69598;SHT31;70000;51.176;-115.568;2024-01-15T06:16:15;-27.74;75.79
69598;SHT31;70000;51.176;-115.568;2024-01-15T06:18:46;-27.77;75.72
69598;SHT31;70000;51.176;-115.568;2024-01-15T06:21:16;-27.80;75.66
69598;SHT31;70000;51.176;-115.568;2024-01-15T06:26:50;-27.89;75.50
69598;SHT31;70000;51.176;-115.568;2024-01-15T06:29:25;-27.95;75.45
69598;SHT31;70000;51.176;-115.568;2024-01-15T06:31:55;-28.04;75.30
69598;SHT31;70000;51.176;-115.568;2024-01-15T06:34:24;-28.00;75.37
69598;SHT31;70000;51.176;-115.568;2024-01-15T06:36:53;-28.04;75.36
69598;SHT31;70000;51.176;-115.568;2024-01-15T06:39:22;-28.07;75.32
69598;SHT31;70000;51.176;-115.568;2024-01-15T06:41:51;-28.05;75.40
69598;SHT31;70000;51.176;-115.568;2024-01-15T06:44:20;-28.02;75.48
69598;SHT31;70000;51.176;-115.568;2024-01-15T06:46:49;-28.00;75.50
69598;SHT31;70000;51.176;-115.568;2024-01-15T06:49:19;-28.08;75.41
69598;SHT31;70000;51.176;-115.568;2024-01-15T06:51:48;-28.18;75.20
69598;SHT31;70000;51.176;-115.568;2024-01-15T06:54:17;-28.17;75.28
69598;SHT31;70000;51.176;-115.568;2024-01-15T06:56:47;-28.14;75.40
69598;SHT31;70000;51.176;-115.568;2024-01-15T06:59:19;-28.12;75.43
69598;SHT31;70000;51.176;-115.568;2024-01-15T07:01:48;-28.09;75.50
69598;SHT31;70000;51.176;-115.568;2024-01-15T07:04:17;-28.14;75.48
69598;SHT31;70000;51.176;-115.568;2024-01-15T07:06:46;-28.24;75.37
69598;SHT31;70000;51.176;-115.568;2024-01-15T07:09:15;-28.31;75.25
69598;SHT31;70000;51.176;-115.568;2024-01-15T07:11:45;-28.33;75.30
69598;SHT31;70000;51.176;-115.568;2024-01-15T07:14:14;-28.31;75.36
69598;SHT31;70000;51.176;-115.568;2024-01-15T07:16:44;-28.26;75.47
69598;SHT31;70000;51.176;-115.568;2024-01-15T07:19:14;-28.32;75.40
69598;SHT31;70000;51.176;-115.568;2024-01-15T07:21:43;-28.34;75.32
69598;SHT31;70000;51.176;-115.568;2024-01-15T07:24:16;-28.26;75.48
69598;SHT31;70000;51.176;-115.568;2024-01-15T07:26:48;-28.28;75.44
69598;SHT31;70000;51.176;-115.568;2024-01-15T07:29:17;-28.29;75.40
69598;SHT31;70000;51.176;-115.568;2024-01-15T07:31:49;-28.30;75.40
69598;SHT31;70000;51.176;-115.568;2024-01-15T07:34:19;-28.35;75.36
69598;SHT31;70000;51.176;-115.568;2024-01-15T07:36:49;-28.36;75.30
69598;SHT31;70000;51.176;-115.568;2024-01-15T07:39:19;-28.34;75.34
69598;SHT31;70000;51.176;-115.568;2024-01-15T07:41:51;-28.36;75.42
69598;SHT31;70000;51.176;-115.568;2024-01-15T07:44:20;-28.34;75.43
69598;SHT31;70000;51.176;-115.568;2024-01-15T07:46:49;-28.30;75.50
69598;SHT31;70000;51.176;-115.568;2024-01-15T07:49:18;-28.36;75.41
69598;SHT31;70000;51.176;-115.568;2024-01-15T07:51:47;-28.42;75.30
69598;SHT31;70000;51.176;-115.568;2024-01-15T07:54:19;-28.43;75.40
69598;SHT31;70000;51.176;-115.568;2024-01-15T07:56:59;-28.50;75.36
69598;SHT31;70000;51.176;-115.568;2024-01-15T07:59:32;-28.57;75.30
69598;SHT31;70000;51.176;-115.568;2024-01-15T08:02:03;-28.58;75.31
69598;SHT31;70000;51.176;-115.568;2024-01-15T08:04:32;-28.69;75.17
69598;SHT31;70000;51.176;-115.568;2024-01-15T08:07:02;-28.88;74.81
69598;SHT31;70000;51.176;-115.568;2024-01-15T08:09:31;-28.91;74.91
69598;SHT31;70000;51.176;-115.568;2024-01-15T08:12:01;-28.93;75.06
69598;SHT31;70000;51.176;-115.568;2024-01-15T08:14:33;-28.95;75.12
69598;SHT31;70000;51.176;-115.568;2024-01-15T08:17:02;-29.03;75.06
69598;SHT31;70000;51.176;-115.568;2024-01-15T08:19:31;-29.14;74.83
69598;SHT31;70000;51.176;-115.568;2024-01-15T08:22:00;-29.15;74.97
69598;SHT31;70000;51.176;-115.568;2024-01-15T08:24:29;-29.15;75.08
69598;SHT31;70000;51.176;-115.568;2024-01-15T08:26:59;-29.18;75.07
69598;SHT31;70000;51.176;-115.568;2024-01-15T08:29:29;-29.17;75.10
69598;SHT31;70000;51.176;-115.568;2024-01-15T08:32:01;-29.16;75.11
69598;SHT31;70000;51.176;-115.568;2024-01-15T08:34:31;-29.20;75.05
69598;SHT31;70000;51.176;-115.568;2024-01-15T08:37:00;-29.27;75.00
69598;SHT31;70000;51.176;-115.568;2024-01-15T08:39:30;-29.33;74.98
69598;SHT31;70000;51.176;-115.568;2024-01-15T08:41:59;-29.28;75.04
69598;SHT31;70000;51.176;-115.568;2024-01-15T08:44:29;-29.26;75.10
69598;SHT31;70000;51.176;-115.568;2024-01-15T08:46:58;-29.25;75.10
69598;SHT31;70000;51.176;-115.568;2024-01-15T08:49:28;-29.31;75.00
69598;SHT31;70000;51.176;-115.568;2024-01-15T08:51:57;-29.43;74.81
69598;SHT31;70000;51.176;-115.568;2024-01-15T08:54:28;-29.49;74.77
69598;SHT31;70000;51.176;-115.568;2024-01-15T08:57:01;-29.53;74.80
69598;SHT31;70000;51.176;-115.568;2024-01-15T08:59:30;-29.49;74.92
69598;SHT31;70000;51.176;-115.568;2024-01-15T09:02:02;-29.50;74.93
69598;SHT31;70000;51.176;-115.568;2024-01-15T09:04:31;-29.48;74.96
69598;SHT31;70000;51.176;-115.568;2024-01-15T09:07:00;-29.45;75.00
69598;SHT31;70000;51.176;-115.568;2024-01-15T09:09:39;-29.50;74.96
69598;SHT31;70000;51.176;-115.568;2024-01-15T09:12:10;-29.53;74.89
69598;SHT31;70000;51.176;-115.568;2024-01-15T09:14:43;-29.53;74.83
69598;SHT31;70000;51.176;-115.568;2024-01-15T09:17:12;-29.48;74.95
69598;SHT31;70000;51.176;-115.568;2024-01-15T09:19:58;-29.49;74.94
69598;SHT31;70000;51.176;-115.568;2024-01-15T09:22:27;-29.50;74.91
69598;SHT31;70000;51.176;-115.568;2024-01-15T09:24:56;-29.49;74.95
69598;SHT31;70000;51.176;-115.568;2024-01-15T09:27:27;-29.55;74.90
69598;SHT31;70000;51.176;-115.568;2024-01-15T09:29:58;-29.55;74.92
69598;SHT31;70000;51.176;-115.568;2024-01-15T09:32:27;-29.58;74.88
69598;SHT31;70000;51.176;-115.568;2024-01-15T09:34:56;-29.64;74.79
69598;SHT31;70000;51.176;-115.568;2024-01-15T09:37:25;-29.62;74.82
69598;SHT31;70000;51.176;-115.568;2024-01-15T09:43:18;-29.53;74.99
69598;SHT31;70000;51.176;-115.568;2024-01-15T09:45:49;-29.44;75.14
69598;SHT31;70000;51.176;-115.568;2024-01-15T09:48:27;-29.37;75.28
69598;SHT31;70000;51.176;-115.568;2024-01-15T09:54:11;-29.30;75.45
69598;SHT31;70000;51.176;-115.568;2024-01-15T09:56:47;-29.38;75.34
69598;SHT31;70000;51.176;-115.568;2024-01-15T09:59:22;-29.50;75.03
69598;SHT31;70000;51.176;-115.568;2024-01-15T10:01:57;-29.54;74.91
69598;SHT31;70000;51.176;-115.568;2024-01-15T10:04:29;-29.52;75.00
69598;SHT31;70000;51.176;-115.568;2024-01-15T10:06:58;-29.52;75.02
69598;SHT31;70000;51.176;-115.568;2024-01-15T10:09:29;-29.48;75.11
69598;SHT31;70000;51.176;-115.568;2024-01-15T10:11:59;-29.47;75.18
69598;SHT31;70000;51.176;-115.568;2024-01-15T10:14:29;-29.45;75.18
69598;SHT31;70000;51.176;-115.568;2024-01-15T10:17:12;-29.37;75.25
69598;SHT31;70000;51.176;-115.568;2024-01-15T10:19:48;-29.31;75.40
69598;SHT31;70000;51.176;-115.568;2024-01-15T10:22:25;-29.33;75.31
69598;SHT31;70000;51.176;-115.568;2024-01-15T10:24:57;-29.33;75.21
69598;SHT31;70000;51.176;-115.568;2024-01-15T10:27:27;-29.34;75.20
69598;SHT31;70000;51.176;-115.568;2024-01-15T10:29:59;-29.32;75.20
69598;SHT31;70000;51.176;-115.568;2024-01-15T10:32:29;-29.40;75.03
69598;SHT31;70000;51.176;-115.568;2024-01-15T10:34:59;-29.51;74.83
69598;SHT31;70000;51.176;-115.568;2024-01-15T10:37:37;-29.57;74.72
69598;SHT31;70000;51.176;-115.568;2024-01-15T10:40:09;-29.56;74.83
69598;SHT31;70000;51.176;-115.568;2024-01-15T10:42:40;-29.54;74.94
69598;SHT31;70000;51.176;-115.568;2024-01-15T10:45:16;-29.49;75.07
69598;SHT31;70000;51.176;-115.568;2024-01-15T10:47:45;-29.51;74.99
69598;SHT31;70000;51.176;-115.568;2024-01-15T10:50:16;-29.58;74.89
69598;SHT31;70000;51.176;-115.568;2024-01-15T10:52:45;-29.68;74.70
69598;SHT31;70000;51.176;-115.568;2024-01-15T10:55:15;-29.70;74.71
69598;SHT31;70000;51.176;-115.568;2024-01-15T10:57:48;-29.69;74.84
69598;SHT31;70000;51.176;-115.568;2024-01-15T11:00:21;-29.70;74.89
69598;SHT31;70000;51.176;-115.568;2024-01-15T11:02:50;-29.76;74.80
69598;SHT31;70000;51.176;-115.568;2024-01-15T11:05:23;-29.78;74.80
69598;SHT31;70000;51.176;-115.568;2024-01-15T11:08:00;-29.77;74.92
69598;SHT31;70000;51.176;-115.568;2024-01-15T11:10:46;-29.77;75.00
69598;SHT31;70000;51.176;-115.568;2024-01-15T11:13:22;-29.82;74.96
69598;SHT31;70000;51.176;-115.568;2024-01-15T11:16:13;-29.84;74.90
69598;SHT31;70000;51.176;-115.568;2024-01-15T11:21:41;-29.78;75.09
69598;SHT31;70000;51.176;-115.568;2024-01-15T11:24:11;-29.74;75.12
69598;SHT31;70000;51.176;-115.568;2024-01-15T11:27:08;-29.77;75.02
69598;SHT31;70000;51.176;-115.568;2024-01-15T11:29:37;-29.77;75.00
69598;SHT31;70000;51.176;-115.568;2024-01-15T11:32:07;-29.72;75.09
69598;SHT31;70000;51.176;-115.568;2024-01-15T11:43:10;-29.71;75.07
69598;SHT31;70000;51.176;-115.568;2024-01-15T11:45:40;-29.70;75.17
69598;SHT31;70000;51.176;-115.568;2024-01-15T11:48:14;-29.69;75.16
69598;SHT31;70000;51.176;-115.568;2024-01-15T11:50:47;-29.65;75.20
69598;SHT31;70000;51.176;-115.568;2024-01-15T11:56:42;-29.58;75.24
69598;SHT31;70000;51.176;-115.568;2024-01-15T11:59:12;-29.55;75.22
69598;SHT31;70000;51.176;-115.568;2024-01-15T12:01:41;-29.54;75.21
69598;SHT31;70000;51.176;-115.568;2024-01-15T12:04:10;-29.57;75.20
69598;SHT31;70000;51.176;-115.568;2024-01-15T12:06:42;-29.58;75.14
69598;SHT31;70000;51.176;-115.568;2024-01-15T12:09:14;-29.56;75.10
69598;SHT31;70000;51.176;-115.568;2024-01-15T12:11:48;-29.57;75.09
69598;SHT31;70000;51.176;-115.568;2024-01-15T12:14:30;-29.60;75.02
69598;SHT31;70000;51.176;-115.568;2024-01-15T12:17:02;-29.58;75.09
69598;SHT31;70000;51.176;-115.568;2024-01-15T12:19:32;-29.58;75.09
69598;SHT31;70000;51.176;-115.568;2024-01-15T12:22:03;-29.60;75.10
69598;SHT31;70000;51.176;-115.568;2024-01-15T12:27:07;-29.63;74.97
69598;SHT31;70000;51.176;-115.568;2024-01-15T12:29:37;-29.69;74.82
69598;SHT31;70000;51.176;-115.568;2024-01-15T12:32:06;-29.67;74.87
69598;SHT31;70000;51.176;-115.568;2024-01-15T12:34:35;-29.64;74.96
69598;SHT31;70000;51.176;-115.568;2024-01-15T12:37:09;-29.59;75.07
69598;SHT31;70000;51.176;-115.568;2024-01-15T12:39:42;-29.56;75.11
69598;SHT31;70000;51.176;-115.568;2024-01-15T12:42:17;-29.53;75.14
69598;SHT31;70000;51.176;-115.568;2024-01-15T12:44:46;-29.49;75.19
69598;SHT31;70000;51.176;-115.568;2024-01-15T12:47:18;-29.49;75.13
69598;SHT31;70000;51.176;-115.568;2024-01-15T12:49:52;-29.50;75.10
69598;SHT31;70000;51.176;-115.568;2024-01-15T12:52:32;-29.49;75.10
69598;SHT31;70000;51.176;-115.568;2024-01-15T12:55:01;-29.46;75.19
69598;SHT31;70000;51.176;-115.568;2024-01-15T12:57:36;-29.42;75.25
69598;SHT31;70000;51.176;-115.568;2024-01-15T13:00:09;-29.37;75.34
69598;SHT31;70000;51.176;-115.568;2024-01-15T13:02:42;-29.36;75.30
69598;SHT31;70000;51.176;-115.568;2024-01-15T13:05:11;-29.36;75.30
69598;SHT31;70000;51.176;-115.568;2024-01-15T13:07:41;-29.34;75.28
69598;SHT31;70000;51.176;-115.568;2024-01-15T13:10:11;-29.36;75.20
69598;SHT31;70000;51.176;-115.568;2024-01-15T13:12:43;-29.41;75.05
69598;SHT31;70000;51.176;-115.568;2024-01-15T13:15:15;-29.44;74.99
69598;SHT31;70000;51.176;-115.568;2024-01-15T13:17:47;-29.42;75.00
69598;SHT31;70000;51.176;-115.568;2024-01-15T13:20:16;-29.42;75.00
69598;SHT31;70000;51.176;-115.568;2024-01-15T13:22:45;-29.40;75.05
69598;SHT31;70000;51.176;-115.568;2024-01-15T13:25:17;-29.40;75.00
69598;SHT31;70000;51.176;-115.568;2024-01-15T13:27:46;-29.42;74.94
69598;SHT31;70000;51.176;-115.568;2024-01-15T13:33:51;-29.54;74.80
69598;SHT31;70000;51.176;-115.568;2024-01-15T13:36:20;-29.50;74.92
69598;SHT31;70000;51.176;-115.568;2024-01-15T13:38:50;-29.48;74.99
69598;SHT31;70000;51.176;-115.568;2024-01-15T13:41:20;-29.52;74.90
69598;SHT31;70000;51.176;-115.568;2024-01-15T13:43:54;-29.52;74.92
69598;SHT31;70000;51.176;-115.568;2024-01-15T13:46:26;-29.47;75.03
69598;SHT31;70000;51.176;-115.568;2024-01-15T13:49:00;-29.41;75.10
69598;SHT31;70000;51.176;-115.568;2024-01-15T13:51:29;-29.36;75.13
69598;SHT31;70000;51.176;-115.568;2024-01-15T13:53:58;-29.36;75.11
69598;SHT31;70000;51.176;-115.568;2024-01-15T13:56:26;-29.38;75.09
69598;SHT31;70000;51.176;-115.568;2024-01-15T13:58:59;-29.37;75.10
69598;SHT31;70000;51.176;-115.568;2024-01-15T14:01:28;-29.37;75.03
69598;SHT31;70000;51.176;-115.568;2024-01-15T14:03:56;-29.30;75.12
69598;SHT31;70000;51.176;-115.568;2024-01-15T14:06:29;-29.28;75.16
69598;SHT31;70000;51.176;-115.568;2024-01-15T14:08:57;-29.27;75.14
69598;SHT31;70000;51.176;-115.568;2024-01-15T14:11:26;-29.22;75.30
69598;SHT31;70000;51.176;-115.568;2024-01-15T14:13:54;-29.17;75.40
69598;SHT31;70000;51.176;-115.568;2024-01-15T14:16:23;-29.11;75.45
69598;SHT31;70000;51.176;-115.568;2024-01-15T14:18:54;-29.08;75.44
69598;SHT31;70000;51.176;-115.568;2024-01-15T14:21:23;-29.06;75.42
69598;SHT31;70000;51.176;-115.568;2024-01-15T14:23:51;-29.06;75.39
69598;SHT31;70000;51.176;-115.568;2024-01-15T14:26:20;-29.05;75.34
69598;SHT31;70000;51.176;-115.568;2024-01-15T14:28:48;-29.06;75.33
69598;SHT31;70000;51.176;-115.568;2024-01-15T14:31:17;-28.99;75.43
69598;SHT31;70000;51.176;-115.568;2024-01-15T14:33:47;-28.94;75.47
69598;SHT31;70000;51.176;-115.568;2024-01-15T14:36:15;-28.91;75.43
69598;SHT31;70000;51.176;-115.568;2024-01-15T14:38:44;-28.89;75.40
69598;SHT31;70000;51.176;-115.568;2024-01-15T14:41:12;-28.86;75.40
69598;SHT31;70000;51.176;-115.568;2024-01-15T14:43:43;-28.84;75.38
69598;SHT31;70000;51.176;-115.568;2024-01-15T14:46:14;-28.84;75.35
69598;SHT31;70000;51.176;-115.568;2024-01-15T14:48:43;-28.82;75.35
69598;SHT31;70000;51.176;-115.568;2024-01-15T14:51:12;-28.78;75.40
69598;SHT31;70000;51.176;-115.568;2024-01-15T14:53:40;-28.71;75.50
69598;SHT31;70000;51.176;-115.568;2024-01-15T14:56:10;-28.64;75.60
69598;SHT31;70000;51.176;-115.568;2024-01-15T14:58:42;-28.59;75.61
69598;SHT31;70000;51.176;-115.568;2024-01-15T15:01:13;-28.54;75.70
69598;SHT31;70000;51.176;-115.568;2024-01-15T15:03:42;-28.53;75.70
69598;SHT31;70000;51.176;-115.568;2024-01-15T15:06:11;-28.49;75.70
69598;SHT31;70000;51.176;-115.568;2024-01-15T15:08:42;-28.49;75.69
69598;SHT31;70000;51.176;-115.568;2024-01-15T15:11:10;-28.45;75.68
69598;SHT31;70000;51.176;-115.568;2024-01-15T15:13:42;-28.43;75.64
69598;SHT31;70000;51.176;-115.568;2024-01-15T15:16:12;-28.41;75.69
69598;SHT31;70000;51.176;-115.568;2024-01-15T15:18:42;-28.38;75.74
69598;SHT31;70000;51.176;-115.568;2024-01-15T15:21:10;-28.39;75.80
69598;SHT31;70000;51.176;-115.568;2024-01-15T15:23:42;-28.35;75.84
69598;SHT31;70000;51.176;-115.568;2024-01-15T15:26:10;-28.32;75.81
69598;SHT31;70000;51.176;-115.568;2024-01-15T15:28:39;-28.30;75.83
69598;SHT31;70000;51.176;-115.568;2024-01-15T15:31:15;-28.26;75.82
69598;SHT31;70000;51.176;-115.568;2024-01-15T15:33:45;-28.21;75.90
69598;SHT31;70000;51.176;-115.568;2024-01-15T15:36:14;-28.18;75.90
69598;SHT31;70000;51.176;-115.568;2024-01-15T15:38:45;-28.16;75.90
69598;SHT31;70000;51.176;-115.568;2024-01-15T15:43:42;-28.16;75.79
69598;SHT31;70000;51.176;-115.568;2024-01-15T15:46:11;-28.16;75.74
69598;SHT31;70000;51.176;-115.568;2024-01-15T15:48:39;-28.14;75.80